createdAt,value
2018-05-23T00:01:05.908Z,2.07
2018-05-23T00:07:00.905Z,2.03
2018-05-23T00:12:55.945Z,1.82
2018-05-23T00:18:50.895Z,1.77
2018-05-23T00:24:45.938Z,2.08
2018-05-23T00:30:40.975Z,1.94
2018-05-23T00:36:35.947Z,2.38
2018-05-23T00:42:30.923Z,2.46
2018-05-23T00:48:26.001Z,2.18
2018-05-23T00:54:20.908Z,2.22
2018-05-23T01:00:15.952Z,2.74
2018-05-23T01:06:10.955Z,3.39
2018-05-23T01:12:05.986Z,3.17
2018-05-23T01:18:00.976Z,3.06
2018-05-23T01:23:55.942Z,6.18
2018-05-23T01:29:50.962Z,5.39
2018-05-23T01:35:45.955Z,8.37
2018-05-23T01:41:40.965Z,7.2
2018-05-23T01:47:35.990Z,6.23
2018-05-23T01:53:30.946Z,5.86
2018-05-23T01:59:25.975Z,6.45
2018-05-23T02:05:20.982Z,6.5
2018-05-23T02:11:15.986Z,7.29
2018-05-23T02:17:10.978Z,7.33
2018-05-23T02:23:05.984Z,6.92
2018-05-23T02:29:00.961Z,4
2018-05-23T02:34:56.050Z,3.31
2018-05-23T02:40:51.023Z,2.84
2018-05-23T02:46:45.983Z,3.07
2018-05-23T02:52:41.012Z,3.09
2018-05-23T02:58:36.018Z,2.48
2018-05-23T03:04:31.029Z,2.33
2018-05-23T03:10:26.041Z,2.4
2018-05-23T03:16:21.003Z,5.97
2018-05-23T03:22:16.021Z,6.94
2018-05-23T03:28:11.050Z,6.47
2018-05-23T03:34:06.050Z,6.83
2018-05-23T03:40:01.048Z,7.74
2018-05-23T03:45:56.049Z,8.89
2018-05-23T03:51:51.036Z,6.88
2018-05-23T03:57:46.060Z,6.8
2018-05-23T04:03:41.042Z,6.07
2018-05-23T04:09:36.072Z,6.45
2018-05-23T04:15:31.122Z,7.49
2018-05-23T04:21:26.063Z,5.6
2018-05-23T04:27:21.102Z,6.77
2018-05-23T04:33:16.040Z,8.32
2018-05-23T04:39:11.039Z,8.69
2018-05-23T04:45:06.075Z,8.97
2018-05-23T04:51:01.085Z,10.08
2018-05-23T04:56:56.156Z,8.73
2018-05-23T05:02:51.084Z,7.91
2018-05-23T05:08:46.074Z,6.56
2018-05-23T05:14:41.089Z,6.8
2018-05-23T05:20:36.124Z,9.78
2018-05-23T05:26:31.103Z,13.85
2018-05-23T05:32:26.080Z,12.56
2018-05-23T05:38:21.140Z,12.7
2018-05-23T05:44:16.115Z,12.61
2018-05-23T05:50:11.113Z,14.04
2018-05-23T05:56:06.094Z,19.58
2018-05-23T06:02:01.224Z,46.33
2018-05-23T06:07:56.091Z,30.13
2018-05-23T06:13:51.109Z,24.23
2018-05-23T06:19:46.165Z,21.99
2018-05-23T06:25:41.082Z,20.86
2018-05-23T06:31:36.111Z,16.16
2018-05-23T06:37:31.095Z,14.04
2018-05-23T06:43:26.196Z,12.36
2018-05-23T06:49:21.171Z,13.08
2018-05-23T06:55:16.128Z,13.67
2018-05-23T07:01:11.223Z,10.93
2018-05-23T07:07:06.185Z,12.29
2018-05-23T07:13:01.171Z,9.97
2018-05-23T07:18:56.153Z,6.2
2018-05-23T07:24:51.134Z,8.63
2018-05-23T07:30:46.175Z,6.16
2018-05-23T07:36:41.177Z,6.02
2018-05-23T07:42:36.160Z,6.41
2018-05-23T07:48:31.140Z,6.18
2018-05-23T07:54:26.142Z,4.07
2018-05-23T08:00:21.180Z,4.61
2018-05-23T08:06:16.176Z,4.9
2018-05-23T08:12:11.211Z,5.01
2018-05-23T08:18:06.213Z,4.65
2018-05-23T08:24:01.184Z,4.07
2018-05-23T08:29:56.220Z,4.07
2018-05-23T08:35:51.195Z,3.63
2018-05-23T08:41:46.245Z,3.74
2018-05-23T08:47:41.197Z,4.35
2018-05-23T08:53:36.175Z,3.76
2018-05-23T08:59:31.203Z,3.42
2018-05-23T09:05:26.191Z,4.52
2018-05-23T09:11:21.196Z,3.84
2018-05-23T09:17:16.216Z,3.92
2018-05-23T09:23:11.185Z,3.46
2018-05-23T09:29:06.219Z,4.91
2018-05-23T09:35:01.226Z,3.84
2018-05-23T09:40:56.232Z,3.25
2018-05-23T09:46:51.278Z,3.74
2018-05-23T09:52:46.198Z,3.76
2018-05-23T09:58:41.293Z,4.17
2018-05-23T10:04:36.271Z,3.84
2018-05-23T10:10:31.234Z,5.82
2018-05-23T10:16:26.260Z,5.75
2018-05-23T10:22:21.266Z,5.54
2018-05-23T10:28:16.235Z,5.45
2018-05-23T10:34:11.257Z,5.93
2018-05-23T10:40:06.325Z,5.44
2018-05-23T10:46:01.287Z,5.67
2018-05-23T10:51:56.388Z,4.65
2018-05-23T10:57:51.243Z,5.67
2018-05-23T11:03:46.335Z,5.43
2018-05-23T11:09:41.327Z,5.03
2018-05-23T11:15:36.271Z,4.07
2018-05-23T11:21:31.337Z,4.68
2018-05-23T11:27:26.312Z,4.86
2018-05-23T11:33:21.307Z,4.85
2018-05-23T11:39:16.292Z,3.7
2018-05-23T11:45:11.328Z,4.13
2018-05-23T11:51:06.326Z,4.64
2018-05-23T11:57:01.328Z,4.86
2018-05-23T12:02:56.273Z,4.37
2018-05-23T12:08:51.277Z,4.29
2018-05-23T12:14:46.284Z,4.52
2018-05-23T12:20:41.300Z,3.9
2018-05-23T12:26:36.287Z,3.55
2018-05-23T12:32:31.313Z,4.08
2018-05-23T12:38:26.330Z,4.02
2018-05-23T12:44:21.323Z,3.53
2018-05-23T12:50:16.335Z,3.24
2018-05-23T12:56:11.305Z,3.94
2018-05-23T13:02:06.337Z,3.76
2018-05-23T13:08:01.327Z,3.7
2018-05-23T13:13:56.387Z,3.85
2018-05-23T13:19:51.320Z,3.25
2018-05-23T13:25:46.402Z,3.45
2018-05-23T13:31:41.376Z,2.87
2018-05-23T13:37:36.321Z,3.47
2018-05-23T13:43:31.406Z,2.85
2018-05-23T13:49:26.367Z,2.67
2018-05-23T13:55:21.391Z,2.28
2018-05-23T14:01:16.348Z,2.34
2018-05-23T14:07:11.368Z,2.19
2018-05-23T14:13:06.407Z,2.5
2018-05-23T14:19:01.385Z,2.84
2018-05-23T14:24:56.389Z,5.44
2018-05-23T14:30:51.379Z,5.54
2018-05-23T14:36:46.401Z,5.71
2018-05-23T14:42:41.355Z,5.33
2018-05-23T14:48:36.373Z,4.74
2018-05-23T14:54:31.405Z,4.57
2018-05-23T15:00:26.371Z,3.29
2018-05-23T15:06:21.486Z,4.12
2018-05-23T15:12:16.403Z,3.03
2018-05-23T15:18:11.419Z,2.94
2018-05-23T15:24:06.428Z,2.74
2018-05-23T15:30:01.411Z,3.23
2018-05-23T15:35:56.398Z,3.17
2018-05-23T15:41:51.463Z,3.38
2018-05-23T15:47:46.399Z,3.36
2018-05-23T15:53:41.432Z,5.07
2018-05-23T15:59:36.414Z,3.99
2018-05-23T16:05:31.442Z,3.47
2018-05-23T16:11:26.437Z,4.08
2018-05-23T16:17:21.432Z,3.78
2018-05-23T16:23:16.472Z,3.17
2018-05-23T16:29:11.426Z,3.45
2018-05-23T16:35:06.450Z,3.48
2018-05-23T16:41:01.437Z,2.63
2018-05-23T16:46:56.459Z,2.72
2018-05-23T16:52:51.461Z,2.35
2018-05-23T16:58:46.444Z,2.8
2018-05-23T17:04:41.493Z,3
2018-05-23T17:10:36.487Z,2.68
2018-05-23T17:16:31.594Z,2.85
2018-05-23T17:22:26.483Z,4.35
2018-05-23T17:28:21.493Z,2.74
2018-05-23T17:34:16.503Z,3.4
2018-05-23T17:40:11.613Z,2.76
2018-05-23T17:46:06.490Z,2.47
2018-05-23T17:52:01.493Z,2.55
2018-05-23T17:57:56.465Z,3.23
2018-05-23T18:03:51.526Z,3.06
2018-05-23T18:09:46.509Z,3.58
2018-05-23T18:15:41.516Z,3.18
2018-05-23T18:21:36.584Z,3.58
2018-05-23T18:27:31.514Z,3.57
2018-05-23T18:33:26.553Z,3.45
2018-05-23T18:39:21.513Z,2.94
2018-05-23T18:45:16.541Z,3.28
2018-05-23T18:51:11.530Z,3.39
2018-05-23T18:57:06.520Z,3.67
2018-05-23T19:03:01.523Z,4.11
2018-05-23T19:08:56.568Z,3.68
2018-05-23T19:14:51.564Z,3.71
2018-05-23T19:20:46.597Z,4.35
2018-05-23T19:26:41.543Z,3.93
2018-05-23T19:32:36.555Z,4.18
2018-05-23T19:38:31.527Z,3.74
2018-05-23T19:44:26.555Z,3.87
2018-05-23T19:50:21.560Z,3.88
2018-05-23T19:56:16.554Z,4.11
2018-05-23T20:02:11.659Z,3.85
2018-05-23T20:08:06.684Z,3.31
2018-05-23T20:14:01.598Z,3.55
2018-05-23T20:19:56.544Z,3.09
2018-05-23T20:25:51.623Z,3.59
2018-05-23T20:31:46.655Z,3.81
2018-05-23T20:37:41.617Z,3.12
2018-05-23T20:43:36.571Z,4.04
2018-05-23T20:49:31.664Z,4.32
2018-05-23T20:55:26.635Z,3.89
2018-05-23T21:01:21.625Z,3.97
2018-05-23T21:07:16.608Z,4.22
2018-05-23T21:13:11.597Z,3.76
2018-05-23T21:19:06.651Z,4.17
2018-05-23T21:25:01.602Z,4.34
2018-05-23T21:30:56.644Z,14.52
2018-05-23T21:36:51.658Z,6.93
2018-05-23T21:42:46.605Z,3.26
2018-05-23T21:48:41.626Z,3.15
2018-05-23T21:54:36.647Z,3.2
2018-05-23T22:00:31.612Z,3.48
2018-05-23T22:06:26.636Z,3.79
2018-05-23T22:12:21.624Z,3.75
2018-05-23T22:18:16.683Z,3.7
2018-05-23T22:24:11.629Z,3.96
2018-05-23T22:30:06.744Z,3.98
2018-05-23T22:36:01.760Z,4.04
2018-05-23T22:41:56.636Z,4.07
2018-05-23T22:47:51.668Z,3.86
2018-05-23T22:53:46.643Z,4.3
2018-05-23T22:59:41.649Z,3.61
2018-05-23T23:05:36.669Z,3.9
2018-05-23T23:11:31.664Z,3.86
2018-05-23T23:17:26.642Z,3.33
2018-05-23T23:23:21.708Z,3.36
2018-05-23T23:29:16.700Z,3.76
2018-05-23T23:35:11.693Z,3.31
2018-05-23T23:41:06.665Z,3.38
2018-05-23T23:47:01.715Z,3.01
2018-05-23T23:52:56.690Z,3.49
2018-05-23T23:58:51.687Z,3.67
